Time;durP1;ratioP1;P1;durP2;ratioP2;P2;SDS_P1;SDS_P2;PMS_P1;PMS_P2;Temp;Humidity;BMP_temperature;BMP_pressure;BME280_temperature;BME280_humidity;BME280_pressure;Samples;Min_cycle;Max_cycle;Signal;HPM_P1;HPM_P2
2020/12/20 16:14:56;;;;;;;15.82;4.30;;;9.20;99.90;;;;;;5106014;27;20350;-67
2020/12/20 16:17:22;;;;;;;7.10;2.88;;;9.10;99.90;;;;;;5104576;27;20402;-67
2020/12/20 16:19:47;;;;;;;9.68;2.85;;;9.10;99.90;;;;;;5100142;28;20020;-67
2020/12/20 16:22:13;;;;;;;9.52;2.72;;;9.10;99.90;;;;;;5097309;28;20023;-66
2020/12/20 16:24:39;;;;;;;12.93;3.15;;;9.00;99.90;;;;;;5108516;28;20482;-66
2020/12/20 16:27:04;;;;;;;11.77;2.65;;;9.00;99.90;;;;;;5102225;28;20123;-67
2020/12/20 16:29:30;;;;;;;8.88;3.80;;;9.00;99.90;;;;;;5099561;28;20545;-67
2020/12/20 16:31:56;;;;;;;10.73;4.55;;;9.00;99.90;;;;;;5089805;28;20032;-66
2020/12/20 16:34:33;;;;;;;16.15;4.43;;;9.00;99.90;;;;;;5098746;28;20020;-66
2020/12/20 16:37:00;;;;;;;15.98;4.57;;;9.00;99.90;;;;;;5106497;28;20035;-66
2020/12/20 16:39:27;;;;;;;10.70;3.83;;;9.00;99.90;;;;;;5091945;28;20020;-66
2020/12/20 16:41:54;;;;;;;14.10;3.65;;;8.90;99.90;;;;;;5101975;28;20028;-68
2020/12/20 16:44:20;;;;;;;10.98;3.47;;;9.00;99.90;;;;;;5115611;27;20043;-67
2020/12/20 16:46:48;;;;;;;10.90;3.58;;;8.90;99.90;;;;;;5103409;28;20050;-67
2020/12/20 16:49:14;;;;;;;12.32;3.53;;;8.90;99.90;;;;;;5103076;28;20076;-66
2020/12/20 16:51:42;;;;;;;13.40;3.67;;;8.90;99.90;;;;;;5094111;28;20027;-67
2020/12/20 16:54:09;;;;;;;12.32;3.70;;;8.90;99.90;;;;;;5101521;28;20434;-67
2020/12/20 16:56:36;;;;;;;12.82;4.30;;;8.90;99.90;;;;;;5105223;28;20035;-66
2020/12/20 16:59:02;;;;;;;9.30;3.97;;;8.80;99.90;;;;;;5097069;28;20020;-67
2020/12/20 17:01:28;;;;;;;14.00;4.47;;;8.80;99.90;;;;;;5107758;28;20034;-65
2020/12/20 17:03:54;;;;;;;10.68;4.15;;;8.80;99.90;;;;;;5108748;28;20123;-66
2020/12/20 17:06:21;;;;;;;10.40;3.63;;;8.80;99.90;;;;;;5104903;28;20032;-66
2020/12/20 17:08:47;;;;;;;11.52;4.03;;;8.90;99.90;;;;;;5097883;28;20077;-65
2020/12/20 17:11:14;;;;;;;12.25;4.03;;;8.90;99.90;;;;;;5097882;28;20034;-65
2020/12/20 17:13:40;;;;;;;12.52;4.68;;;9.00;99.90;;;;;;5094458;28;20089;-67
2020/12/20 17:16:10;;;;;;;14.38;4.10;;;9.00;99.90;;;;;;5098145;28;20046;-65
2020/12/20 17:18:39;;;;;;;21.27;5.70;;;9.00;99.90;;;;;;5100117;27;20502;-66
2020/12/20 17:21:12;;;;;;;16.38;5.93;;;9.00;99.90;;;;;;5115520;28;20027;-65
2020/12/20 17:23:37;;;;;;;20.95;7.15;;;9.00;99.90;;;;;;5106063;27;20092;-65
2020/12/20 17:26:03;;;;;;;25.20;7.72;;;9.00;99.90;;;;;;5080866;27;20027;-66
2020/12/20 17:28:28;;;;;;;25.73;8.50;;;9.00;99.90;;;;;;5081289;28;20498;-66
2020/12/20 17:30:54;;;;;;;20.88;8.95;;;9.00;99.90;;;;;;5091112;28;20028;-67
2020/12/20 17:33:20;;;;;;;30.05;13.10;;;8.90;99.90;;;;;;5088703;28;20028;-66
2020/12/20 17:35:45;;;;;;;33.72;12.52;;;9.00;99.90;;;;;;5095970;28;20099;-67
2020/12/20 17:38:11;;;;;;;35.22;14.30;;;8.90;99.90;;;;;;5084287;28;20356;-68
2020/12/20 17:40:37;;;;;;;27.77;11.93;;;8.90;99.90;;;;;;5090611;28;20024;-69
2020/12/20 17:43:02;;;;;;;29.27;10.35;;;8.90;99.90;;;;;;5088130;28;20019;-67
2020/12/20 17:45:28;;;;;;;18.38;7.22;;;8.90;99.90;;;;;;5093929;28;20040;-67
2020/12/20 17:47:54;;;;;;;17.90;4.80;;;8.90;99.90;;;;;;5085959;28;20020;-67
2020/12/20 17:50:19;;;;;;;19.90;6.40;;;9.00;99.90;;;;;;5090313;28;20028;-66
2020/12/20 17:52:45;;;;;;;14.15;4.30;;;9.10;99.90;;;;;;5102769;28;20051;-67
2020/12/20 17:55:11;;;;;;;17.45;4.88;;;9.10;99.90;;;;;;5094830;28;20023;-66
2020/12/20 17:57:38;;;;;;;12.20;3.50;;;9.10;99.90;;;;;;5103846;28;20034;-66
2020/12/20 18:00:05;;;;;;;10.98;3.15;;;9.20;99.90;;;;;;5102834;28;20110;-67
2020/12/20 18:02:31;;;;;;;32.05;10.80;;;9.20;99.90;;;;;;5082184;28;20032;-66
2020/12/20 18:04:57;;;;;;;29.95;8.23;;;9.20;99.90;;;;;;5089085;28;20083;-66
2020/12/20 18:07:22;;;;;;;19.60;5.65;;;9.30;99.90;;;;;;5092320;28;20024;-67
2020/12/20 18:09:48;;;;;;;41.00;11.80;;;9.30;99.90;;;;;;5081224;28;20040;-65
2020/12/20 18:12:13;;;;;;;22.25;5.03;;;9.30;99.90;;;;;;5081585;28;20033;-66
2020/12/20 18:14:39;;;;;;;32.95;11.75;;;9.30;99.90;;;;;;5087651;28;20746;-66
2020/12/20 18:17:04;;;;;;;19.45;5.28;;;9.30;99.90;;;;;;5088446;28;20066;-67
2020/12/20 18:19:32;;;;;;;43.22;14.05;;;9.30;99.90;;;;;;5078550;28;20670;-64
2020/12/20 18:21:59;;;;;;;31.48;9.05;;;9.30;99.90;;;;;;5079668;28;20186;-67
2020/12/20 18:24:25;;;;;;;17.23;4.18;;;9.30;99.90;;;;;;5078803;28;20032;-67
2020/12/20 18:26:50;;;;;;;17.90;3.25;;;9.40;99.90;;;;;;5080386;28;20687;-66
2020/12/20 18:29:16;;;;;;;9.07;2.50;;;9.40;99.90;;;;;;5077597;28;20723;-65
2020/12/20 18:31:41;;;;;;;12.30;3.33;;;9.50;99.90;;;;;;5078650;28;20062;-66
2020/12/20 18:34:07;;;;;;;33.80;10.77;;;9.40;99.90;;;;;;5081095;28;20072;-67
2020/12/20 18:36:39;;;;;;;15.32;3.67;;;9.40;99.90;;;;;;5075639;28;20483;-66
2020/12/20 18:39:11;;;;;;;17.77;2.92;;;9.30;99.90;;;;;;5075021;28;20036;-66
2020/12/20 18:41:39;;;;;;;11.80;2.58;;;9.30;99.90;;;;;;5074617;28;20044;-65
2020/12/20 18:44:11;;;;;;;17.27;3.13;;;9.20;99.90;;;;;;5077212;28;20198;-66
2020/12/20 18:46:41;;;;;;;19.17;3.28;;;9.20;99.90;;;;;;5087141;28;20031;-66
2020/12/20 18:49:06;;;;;;;14.73;3.50;;;9.10;99.90;;;;;;5075334;28;20150;-66
2020/12/20 18:51:32;;;;;;;16.55;4.90;;;9.10;99.90;;;;;;5076581;28;20497;-66
2020/12/20 18:53:58;;;;;;;18.20;3.40;;;9.10;99.90;;;;;;5079395;28;20516;-69
2020/12/20 18:56:24;;;;;;;14.93;3.47;;;9.00;99.90;;;;;;5077223;28;20215;-67
2020/12/20 18:58:50;;;;;;;16.35;3.05;;;8.90;99.90;;;;;;5078246;28;20226;-65
2020/12/20 19:01:15;;;;;;;17.67;3.05;;;8.90;99.90;;;;;;5075348;28;20107;-64
2020/12/20 19:03:41;;;;;;;11.55;3.30;;;8.90;99.90;;;;;;5078259;28;20039;-67
2020/12/20 19:06:07;;;;;;;17.52;3.65;;;8.90;99.90;;;;;;5076737;28;20028;-66
2020/12/20 19:08:32;;;;;;;15.15;3.55;;;8.90;99.90;;;;;;5078989;28;20092;-66
2020/12/20 19:10:59;;;;;;;20.40;3.00;;;8.90;99.90;;;;;;5078657;28;20028;-65
2020/12/20 19:13:25;;;;;;;19.73;3.20;;;8.90;99.90;;;;;;5080923;28;20032;-65
2020/12/20 19:15:50;;;;;;;18.15;3.30;;;8.90;99.90;;;;;;5076016;28;20031;-66
2020/12/20 19:18:16;;;;;;;15.45;3.65;;;8.90;99.90;;;;;;5078607;28;20086;-65
2020/12/20 19:20:41;;;;;;;15.77;3.00;;;8.90;99.90;;;;;;5073143;28;20091;-65
2020/12/20 19:23:07;;;;;;;17.80;5.00;;;8.90;99.90;;;;;;5067682;28;20036;-66
2020/12/20 19:25:33;;;;;;;16.15;3.83;;;9.00;99.90;;;;;;5072789;28;20792;-66
2020/12/20 19:27:58;;;;;;;13.45;3.83;;;9.00;99.90;;;;;;5074033;28;20036;-64
2020/12/20 19:30:24;;;;;;;19.02;3.45;;;9.00;99.90;;;;;;5074579;28;20102;-65
2020/12/20 19:32:49;;;;;;;23.00;4.38;;;9.10;99.90;;;;;;5078622;28;20566;-63
2020/12/20 19:35:15;;;;;;;18.23;3.25;;;9.10;99.90;;;;;;5073794;28;20028;-65
2020/12/20 19:37:41;;;;;;;11.20;3.30;;;9.10;99.90;;;;;;5072589;28;20420;-65
2020/12/20 19:40:06;;;;;;;10.88;2.80;;;9.10;99.90;;;;;;5075718;28;20021;-67
2020/12/20 19:42:32;;;;;;;17.25;3.30;;;9.00;99.90;;;;;;5068843;28;20027;-64
2020/12/20 19:44:59;;;;;;;17.75;3.90;;;9.00;99.90;;;;;;5079782;28;20081;-66
2020/12/20 19:47:26;;;;;;;13.80;2.88;;;9.00;99.90;;;;;;5070297;28;20031;-66
2020/12/20 19:49:51;;;;;;;18.17;3.38;;;8.90;99.90;;;;;;5072125;28;20638;-65
2020/12/20 19:52:17;;;;;;;14.43;3.55;;;8.70;99.90;;;;;;5070743;28;20048;-64
2020/12/20 19:54:44;;;;;;;20.90;4.70;;;8.70;99.90;;;;;;5069765;28;20032;-64
2020/12/20 19:57:12;;;;;;;19.20;3.45;;;8.50;99.90;;;;;;5083526;28;20024;-65
2020/12/20 19:59:37;;;;;;;20.30;3.78;;;8.40;99.90;;;;;;5077661;28;20510;-65
2020/12/20 20:02:03;;;;;;;11.93;2.67;;;8.30;99.90;;;;;;5070204;28;20032;-64
2020/12/20 20:04:29;;;;;;;16.70;3.22;;;8.30;99.90;;;;;;5069781;28;20035;-65
2020/12/20 20:06:54;;;;;;;13.27;3.22;;;8.20;99.90;;;;;;5075912;28;20036;-65
2020/12/20 20:09:20;;;;;;;15.85;3.28;;;8.00;99.90;;;;;;5087212;28;20032;-65
2020/12/20 20:11:45;;;;;;;16.50;4.45;;;8.00;99.90;;;;;;5077594;28;20081;-64
2020/12/20 20:14:11;;;;;;;15.18;4.18;;;8.00;99.90;;;;;;5075374;28;20435;-64
2020/12/20 20:16:37;;;;;;;13.25;4.25;;;7.90;99.90;;;;;;5079143;28;20181;-65
2020/12/20 20:19:04;;;;;;;13.63;5.13;;;7.90;99.90;;;;;;5090505;28;20035;-65
2020/12/20 20:21:32;;;;;;;21.42;5.80;;;7.70;99.90;;;;;;5075288;28;20040;-65
2020/12/20 20:23:58;;;;;;;18.75;6.13;;;7.60;99.90;;;;;;5067285;28;20107;-65
2020/12/20 20:26:28;;;;;;;21.52;5.68;;;7.40;99.90;;;;;;5081037;28;20525;-65
2020/12/20 20:28:55;;;;;;;20.90;4.93;;;7.40;99.90;;;;;;5081298;28;20498;-64
2020/12/20 20:31:24;;;;;;;22.27;4.85;;;7.30;99.90;;;;;;5078770;28;20028;-65
2020/12/20 20:33:51;;;;;;;16.58;5.30;;;7.20;99.90;;;;;;5084054;28;20085;-64
2020/12/20 20:36:26;;;;;;;10.75;4.15;;;7.10;99.90;;;;;;5070219;28;20028;-63
2020/12/20 20:38:52;;;;;;;21.67;4.43;;;6.90;99.90;;;;;;5068349;28;20032;-66
2020/12/20 20:41:18;;;;;;;17.35;4.15;;;6.80;99.90;;;;;;5070062;28;20077;-64
2020/12/20 20:43:43;;;;;;;21.20;4.38;;;6.70;99.90;;;;;;5077867;28;20347;-64
2020/12/20 20:46:14;;;;;;;13.40;4.20;;;6.50;99.90;;;;;;5075980;28;20025;-64
2020/12/20 20:48:40;;;;;;;16.00;3.63;;;6.40;99.90;;;;;;5081990;28;20035;-64
2020/12/20 20:51:07;;;;;;;14.13;3.15;;;6.30;99.90;;;;;;5080575;28;20482;-64
2020/12/20 20:53:32;;;;;;;16.02;4.65;;;6.20;99.90;;;;;;5085539;28;20039;-62
2020/12/20 20:55:58;;;;;;;27.20;6.97;;;6.10;99.90;;;;;;5081666;28;20028;-63
2020/12/20 20:58:23;;;;;;;24.83;7.78;;;6.10;99.90;;;;;;5073153;28;20570;-65
2020/12/20 21:00:49;;;;;;;26.10;7.32;;;6.00;99.90;;;;;;5077218;28;20032;-62
2020/12/20 21:03:14;;;;;;;24.48;6.47;;;5.90;99.90;;;;;;5075147;28;20051;-63
2020/12/20 21:05:47;;;;;;;21.23;5.82;;;5.90;99.90;;;;;;5085910;28;20028;-64
2020/12/20 21:08:12;;;;;;;23.55;5.95;;;5.90;99.90;;;;;;5060139;28;20052;-63
2020/12/20 21:10:39;;;;;;;29.58;5.30;;;6.00;99.90;;;;;;5073899;28;20435;-65
2020/12/20 21:13:05;;;;;;;26.80;6.93;;;6.10;99.90;;;;;;5077264;28;20036;-63
2020/12/20 21:15:30;;;;;;;25.90;6.20;;;6.10;99.90;;;;;;5080931;28;20105;-63
2020/12/20 21:17:56;;;;;;;18.02;5.30;;;6.10;99.90;;;;;;5084965;28;20099;-64
2020/12/20 21:20:22;;;;;;;22.40;4.57;;;6.10;99.90;;;;;;5072920;28;20036;-63
2020/12/20 21:23:07;;;;;;;15.50;4.40;;;6.20;99.90;;;;;;5072110;28;20022;-62
2020/12/20 21:25:36;;;;;;;18.48;5.85;;;6.30;99.90;;;;;;5088849;28;20028;-63
2020/12/20 21:28:08;;;;;;;19.50;3.72;;;6.40;99.90;;;;;;5095564;28;20024;-64
2020/12/20 21:30:38;;;;;;;11.73;4.18;;;6.40;99.90;;;;;;5090833;28;20074;-63
2020/12/20 21:33:05;;;;;;;16.63;4.75;;;6.40;99.90;;;;;;5081523;28;20813;-63
2020/12/20 21:35:39;;;;;;;14.15;5.68;;;6.40;99.90;;;;;;5065427;28;20475;-62
2020/12/20 21:38:05;;;;;;;20.15;5.10;;;6.40;99.90;;;;;;5085039;28;20070;-67
2020/12/20 21:40:34;;;;;;;19.92;5.32;;;6.40;99.90;;;;;;5089389;28;20032;-64
2020/12/20 21:43:00;;;;;;;19.48;4.85;;;6.30;99.90;;;;;;5086745;28;20074;-63
2020/12/20 21:45:26;;;;;;;14.50;4.13;;;6.30;99.90;;;;;;5086599;28;20036;-61
2020/12/20 21:47:51;;;;;;;14.25;4.68;;;6.30;99.90;;;;;;5088125;28;20063;-67
2020/12/20 21:50:18;;;;;;;16.40;4.32;;;6.20;99.90;;;;;;5076919;28;20056;-64
2020/12/20 21:52:44;;;;;;;17.38;4.25;;;6.20;99.90;;;;;;5082325;28;20419;-63
2020/12/20 21:55:15;;;;;;;12.32;3.88;;;6.20;99.90;;;;;;5083773;28;20028;-63
2020/12/20 21:57:49;;;;;;;23.30;5.22;;;6.20;99.90;;;;;;5089608;28;20026;-62
2020/12/20 22:00:16;;;;;;;20.95;5.00;;;6.20;99.90;;;;;;5072235;28;20424;-63
2020/12/20 22:02:43;;;;;;;19.23;4.55;;;6.20;99.90;;;;;;5074993;28;20155;-64
2020/12/20 22:05:10;;;;;;;10.52;3.88;;;6.10;99.90;;;;;;5062091;28;20528;-62
2020/12/20 22:07:36;;;;;;;18.13;4.88;;;6.00;99.90;;;;;;5082556;28;20032;-64
2020/12/20 22:10:04;;;;;;;16.63;4.00;;;6.00;99.90;;;;;;5074992;28;20041;-64
2020/12/20 22:12:31;;;;;;;22.27;4.50;;;5.90;99.90;;;;;;5076939;28;20029;-63
2020/12/20 22:14:58;;;;;;;18.35;3.80;;;5.80;99.90;;;;;;5075441;28;20039;-64
2020/12/20 22:17:23;;;;;;;14.85;4.15;;;5.80;99.90;;;;;;5076434;28;20044;-64
2020/12/20 22:19:49;;;;;;;13.45;4.32;;;5.80;99.90;;;;;;5077282;28;20715;-63
2020/12/20 22:22:15;;;;;;;19.58;5.05;;;5.80;99.90;;;;;;5077327;28;20447;-63
2020/12/20 22:24:44;;;;;;;22.00;4.57;;;5.80;99.90;;;;;;5074521;28;20697;-64
2020/12/20 22:27:09;;;;;;;21.00;4.38;;;5.80;99.90;;;;;;5072782;28;20044;-64
2020/12/20 22:29:36;;;;;;;15.73;4.38;;;5.80;99.90;;;;;;5073626;28;20028;-63
2020/12/20 22:32:02;;;;;;;16.35;4.43;;;5.80;99.90;;;;;;5070395;28;20020;-64
2020/12/20 22:34:30;;;;;;;16.52;4.32;;;5.80;99.90;;;;;;5071380;28;20811;-63
2020/12/20 22:36:56;;;;;;;20.77;4.43;;;5.70;99.90;;;;;;5076416;28;20799;-64
2020/12/20 22:39:22;;;;;;;15.65;4.18;;;5.70;99.90;;;;;;5077002;28;20779;-64
2020/12/20 22:41:48;;;;;;;19.23;4.90;;;5.70;99.90;;;;;;5076807;28;20028;-64
2020/12/20 22:44:13;;;;;;;10.75;4.50;;;5.70;99.90;;;;;;5075307;28;20131;-63
2020/12/20 22:46:40;;;;;;;17.75;4.40;;;5.70;99.90;;;;;;5080016;28;20040;-63
2020/12/20 22:49:06;;;;;;;17.70;4.15;;;5.70;99.90;;;;;;5075388;28;20020;-64
2020/12/20 22:51:33;;;;;;;18.38;4.72;;;5.60;99.90;;;;;;5076270;28;20040;-64
2020/12/20 22:53:58;;;;;;;16.33;4.35;;;5.60;99.90;;;;;;5071616;28;20032;-64
2020/12/20 22:56:24;;;;;;;18.00;4.57;;;5.50;99.90;;;;;;5076217;28;20039;-62
2020/12/20 22:58:49;;;;;;;12.90;4.43;;;5.50;99.90;;;;;;5072408;28;20055;-63
2020/12/20 23:01:15;;;;;;;14.48;5.10;;;5.50;99.90;;;;;;5076651;28;20056;-64
2020/12/20 23:03:41;;;;;;;24.48;4.50;;;5.50;99.90;;;;;;5075169;28;20089;-62
2020/12/20 23:06:14;;;;;;;19.58;5.15;;;5.50;99.90;;;;;;5074982;28;20032;-64
2020/12/20 23:08:41;;;;;;;27.92;6.10;;;5.40;99.90;;;;;;5074988;28;20068;-65
2020/12/20 23:11:10;;;;;;;45.65;7.60;;;5.40;99.90;;;;;;5074342;28;20038;-65
2020/12/20 23:13:36;;;;;;;19.13;5.40;;;5.40;99.90;;;;;;5074810;28;20024;-63
2020/12/20 23:16:03;;;;;;;29.85;6.45;;;5.40;99.90;;;;;;5072168;28;20024;-63
2020/12/20 23:18:28;;;;;;;19.58;6.15;;;5.40;99.90;;;;;;5078354;28;20016;-65
2020/12/20 23:20:54;;;;;;;17.75;4.80;;;5.40;99.90;;;;;;5078170;28;20035;-61
2020/12/20 23:23:19;;;;;;;23.88;7.40;;;5.40;99.90;;;;;;5077580;28;20032;-64
2020/12/20 23:25:47;;;;;;;16.98;5.35;;;5.40;99.90;;;;;;5076876;28;20490;-63
2020/12/20 23:28:12;;;;;;;17.55;5.40;;;5.40;99.90;;;;;;5076447;28;20027;-63
2020/12/20 23:30:38;;;;;;;23.73;6.22;;;5.40;99.90;;;;;;5076553;28;20023;-66
2020/12/20 23:33:04;;;;;;;26.00;6.32;;;5.40;99.90;;;;;;5074002;28;20693;-62
2020/12/20 23:35:31;;;;;;;17.80;5.70;;;5.30;99.90;;;;;;5077381;28;20035;-63
2020/12/20 23:37:57;;;;;;;22.67;5.47;;;5.30;99.90;;;;;;5078270;28;20020;-61
2020/12/20 23:40:24;;;;;;;19.58;5.47;;;5.30;99.90;;;;;;5082167;28;20020;-66
2020/12/20 23:42:50;;;;;;;25.85;5.57;;;5.30;99.90;;;;;;5078059;28;20032;-64
2020/12/20 23:45:15;;;;;;;16.85;5.28;;;5.20;99.90;;;;;;5077215;28;20024;-63
2020/12/20 23:47:42;;;;;;;18.63;5.00;;;5.20;99.90;;;;;;5075690;28;20024;-62
2020/12/20 23:50:09;;;;;;;17.55;5.68;;;5.20;99.90;;;;;;5078571;28;20066;-62
2020/12/20 23:52:35;;;;;;;16.50;6.00;;;5.10;99.90;;;;;;5078966;28;20149;-61
2020/12/20 23:55:02;;;;;;;20.95;5.57;;;5.10;99.90;;;;;;5077522;28;20487;-63
2020/12/20 23:57:28;;;;;;;16.00;5.30;;;5.10;99.90;;;;;;5079629;28;20107;-64
2020/12/20 23:59:53;;;;;;;20.33;5.88;;;5.00;99.90;;;;;;5078411;28;20483;-66
